Terminal Aerodrome Forecast
Issued by NWS

Home | Current Version | Previous Version | Text Only | Print | Product List | Glossary On
Versions: 1 2 3 4 5 6 7 8 9 10 11 12 13 14 15 16 17 18 19
000
FTUS43 KILX 251700
TAFBMI
TAF
KBMI 251728Z 2518/2618 04018G27KT 1SM -SN OVC002
     FM252300 02020G27KT P6SM OVC015
     FM260600 36010KT P6SM BKN015
     FM261300 26007KT P6SM SCT015 BKN050=

USA.gov is the U.S. government's official web portal to all federal, state and local government web resources and services.